Flight Track Log - Related Links

Times and Time Zones

All times are in EDT time to prevent confusion due to time zone crossing. See the N988QC flight status page for this flight to view local times or setup timezone preferences in your user account.

Time Position Orientation Groundspeed Altitude Reporting Facility
EDT Latitude Longitude Course Direction KTS MPH feet Rate Location/Type
Sun 07:39:42 PM 39.8542 -75.3381 270° West 193 222 5,700  Level New York Center
Sun 07:40:42 PM 39.8500 -75.4433 267° West 247 284 9,000 2,218 Climbing New York Center
Sun 07:41:41 PM 39.8444 -75.5322 265° West 273 314 10,100 1,091 Climbing New York Center
Sun 07:42:43 PM 39.8419 -75.6403 268° West 278 320 11,200 1,024 Climbing New York Center
Sun 07:43:44 PM 39.8406 -75.7267 269° West 269 310 12,200 1,513 Climbing New York Center
Sun 07:44:00 PM 39.8135 -75.9025 258° West  Level FlightAware Approximate
Sun 07:44:42 PM 39.8339 -75.8342 265° West 274 315 14,200  Level New York Center
Sun 07:45:00 PM 39.8000 -76.0151 270° West  Level FlightAware Approximate
Sun 07:45:43 PM 39.8236 -75.9281 262° West 279 321 16,000  Level New York Center
Sun 07:46:43 PM 39.8081 -76.0433 260° West 291 335 18,500 2,975 Climbing New York Center
Sun 07:47:44 PM 39.7992 -76.1481 264° West 299 344 22,000 3,156 Climbing New York Center
Sun 07:49:17 PM 39.7553 -76.2933 249° West 272 313 26,600 2,299 Climbing Washington Center
Sun 07:50:18 PM 39.7300 -76.3658 246° West 272 313 27,900 706 Climbing Washington Center
Sun 07:51:16 PM 39.6833 -76.4839 243° Southwest 297 342 28,000 101 Climbing Washington Center
Sun 07:52:17 PM 39.6408 -76.5833 241° Southwest 321 369 28,100  Climbing Washington Center
Sun 07:53:18 PM 39.6025 -76.6850 244° Southwest 326 375 28,000 -50 Descending Washington Center
Sun 07:54:17 PM 39.5639 -76.7894 244° Southwest 326 375 28,000  Level Washington Center
Sun 07:55:18 PM 39.5253 -76.8936 244° Southwest 321 369 28,000  Level Washington Center
Sun 07:56:16 PM 39.4806 -76.9922 240° Southwest 321 369 28,000  Level Washington Center
Sun 07:57:16 PM 39.4086 -77.0689 219° Southwest 321 369 28,000 347 Level Washington Center
Sun 07:58:17 PM 39.3392 -77.1400 218° Southwest 321 369 28,700 992 Climbing Washington Center
Sun 07:59:17 PM 39.2672 -77.2189 220° Southwest 332 382 30,000 1,289 Climbing Washington Center
Sun 08:00:18 PM 39.1931 -77.2922 217° Southwest 332 382 31,300 1,240 Climbing Washington Center
Sun 08:01:18 PM 39.1211 -77.3681 219° Southwest 332 382 32,500 1,220 Climbing Washington Center
Sun 08:02:16 PM 39.0450 -77.4492 220° Southwest 337 388 33,700 756 Climbing Washington Center
Sun 08:03:17 PM 38.9708 -77.5272 219° Southwest 342 394 34,000 149 Climbing Washington Center
Sun 08:04:17 PM 38.8944 -77.6081 219° Southwest 356 410 34,000  Level Washington Center
Sun 08:05:18 PM 38.8117 -77.6936 219° Southwest 356 410 34,000  Level Washington Center
Sun 08:06:15 PM 38.7267 -77.7764 217° Southwest 370 426 34,000  Level Washington Center
Sun 08:07:17 PM 38.6503 -77.8567 219° Southwest 370 426 34,000  Level Washington Center
Sun 08:08:17 PM 38.5836 -77.9581 230° Southwest 364 419 34,000  Level Washington Center
Sun 08:09:18 PM 38.5253 -78.0597 234° Southwest 364 419 34,000  Level Washington Center
Sun 08:10:18 PM 38.4647 -78.1639 233° Southwest 369 425 34,000  Level Washington Center
Sun 08:11:15 PM 38.4042 -78.2678 233° Southwest 369 425 34,000  Level Washington Center
Sun 08:12:16 PM 38.3433 -78.3714 233° Southwest 369 425 34,000  Level Washington Center
Sun 08:13:16 PM 38.2825 -78.4750 233° Southwest 369 425 34,000  Level Washington Center
Sun 08:14:17 PM 38.2258 -78.5758 234° Southwest 369 425 34,000  Level Washington Center
Sun 08:15:17 PM 38.1692 -78.6686 232° Southwest 374 430 34,000  Level Washington Center
Sun 08:16:18 PM 38.1083 -78.7692 232° Southwest 374 430 34,000  Level Washington Center
Sun 08:17:16 PM 38.0472 -78.8719 233° Southwest 374 430 34,000  Level Washington Center
Sun 08:18:16 PM 37.9839 -78.9719 231° Southwest 374 430 34,000  Level Washington Center
Sun 08:19:16 PM 37.9139 -79.0847 232° Southwest 374 430 34,000  Level Washington Center
Sun 08:20:17 PM 37.8464 -79.1814 229° Southwest 369 425 34,000  Level Washington Center
Sun 08:21:18 PM 37.7767 -79.2781 228° Southwest 369 425 34,000  Level Washington Center
Sun 08:22:16 PM 37.7047 -79.3742 227° Southwest 374 430 34,000  Level Washington Center
Sun 08:23:16 PM 37.6417 -79.4628 228° Southwest 380 437 34,000  Level Washington Center
Sun 08:24:17 PM 37.5631 -79.5689 227° Southwest 380 437 34,000  Level Washington Center
Sun 08:25:17 PM 37.4994 -79.6597 229° Southwest 385 443 34,000  Level Washington Center
Sun 08:26:15 PM 37.4225 -79.7708 229° Southwest 385 443 34,000  Level Washington Center
Sun 08:27:16 PM 37.3589 -79.8589 228° Southwest 385 443 34,000  Level Washington Center
Sun 08:30:22 PM 37.1353 -80.1544 227° Southwest 376 433 34,000  Level Atlanta Center
Sun 08:31:22 PM 37.0633 -80.2517 227° Southwest 382 440 34,000  Level Atlanta Center
Sun 08:32:22 PM 36.9911 -80.3486 227° Southwest 382 440 34,000  Level Atlanta Center
Sun 08:33:22 PM 36.9211 -80.4403 226° Southwest 382 440 34,000  Level Atlanta Center
Sun 08:34:22 PM 36.8408 -80.5478 227° Southwest 382 440 34,000  Level Atlanta Center
Sun 08:35:22 PM 36.7706 -80.6442 228° Southwest 373 429 34,000  Level Atlanta Center
Sun 08:36:22 PM 36.7061 -80.7375 229° Southwest 373 429 34,000  Level Atlanta Center
Sun 08:37:22 PM 36.6400 -80.8358 230° Southwest 373 429 34,000  Level Atlanta Center
Sun 08:38:22 PM 36.5858 -80.9208 232° Southwest 368 423 34,000  Level Atlanta Center
Sun 08:39:22 PM 36.5217 -81.0189 231° Southwest 368 423 34,000  Level Atlanta Center
Sun 08:40:22 PM 36.4594 -81.1142 231° Southwest 361 415 34,000  Level Atlanta Center
Sun 08:41:22 PM 36.3928 -81.2067 228° Southwest 361 415 34,000  Level Atlanta Center
Sun 08:42:22 PM 36.3261 -81.3019 229° Southwest 361 415 34,000  Level Atlanta Center
Sun 08:43:22 PM 36.2592 -81.3969 229° Southwest 366 421 34,000  Level Atlanta Center
Sun 08:44:22 PM 36.1881 -81.4842 225° Southwest 366 421 34,000 50 Level Atlanta Center
Sun 08:45:22 PM 36.1128 -81.5739 224° Southwest 371 427 34,100  Climbing Atlanta Center
Sun 08:46:22 PM 36.0439 -81.6786 231° Southwest 366 421 34,000 -50 Descending Atlanta Center
Sun 08:47:22 PM 35.9853 -81.7778 234° Southwest 366 421 34,000 -50 Level Atlanta Center
Sun 08:48:22 PM 35.9225 -81.8744 231° Southwest 366 421 33,900 -50 Descending Atlanta Center
Sun 08:49:22 PM 35.8572 -81.9661 229° Southwest 366 421 33,900  Level Atlanta Center
Sun 08:50:22 PM 35.7919 -82.0597 229° Southwest 366 421 33,900  Level Atlanta Center
Sun 08:51:22 PM 35.7414 -82.1531 236° Southwest 346 398 33,900 50 Level Atlanta Center
Sun 08:52:22 PM 35.6819 -82.2364 229° Southwest 331 381 34,000  Climbing Atlanta Center
Sun 08:53:22 PM 35.6269 -82.3219 232° Southwest 318 366 33,900  Descending Atlanta Center
Sun 08:54:22 PM 35.5758 -82.4047 233° Southwest 318 366 34,000 -200 Climbing Atlanta Center
Sun 08:55:22 PM 35.5186 -82.4900 231° Southwest 318 366 33,500 -1,000 Descending Atlanta Center
Sun 08:56:22 PM 35.4675 -82.5647 230° Southwest 318 366 32,000 -1,400 Descending Atlanta Center
Sun 08:57:22 PM 35.4017 -82.6503 227° Southwest 338 389 30,700 -1,550 Descending Atlanta Center
Sun 08:58:22 PM 35.3358 -82.7428 229° Southwest 351 404 28,900 -1,550 Descending Atlanta Center
Sun 08:59:22 PM 35.2556 -82.8433 226° Southwest 363 418 27,600 -1,350 Descending Atlanta Center
Sun 09:00:22 PM 35.1706 -82.9183 216° Southwest 374 430 26,200 -1,450 Descending Atlanta Center
Sun 09:01:22 PM 35.0839 -82.9981 217° Southwest 385 443 24,700 -1,400 Descending Atlanta Center
Sun 09:02:22 PM 34.9967 -83.0753 216° Southwest 391 450 23,400 -1,450 Descending Atlanta Center
Sun 09:03:22 PM 34.9139 -83.1572 219° Southwest 391 450 21,800 -1,700 Descending Atlanta Center
Sun 09:04:22 PM 34.8267 -83.2367 217° Southwest 391 450 20,000 -1,600 Descending Atlanta Center
Sun 09:05:22 PM 34.7439 -83.3083 215° Southwest 386 444 18,600 -1,500 Descending Atlanta Center
Sun 09:06:22 PM 34.6731 -83.3719 216° Southwest 386 444 17,000 -2,050 Descending Atlanta Center
Sun 09:07:22 PM 34.5817 -83.4533 216° Southwest 364 419 14,500 -2,350 Descending Atlanta Center
Sun 09:08:22 PM 34.5069 -83.5169 215° Southwest 341 392 12,300 -2,050 Descending Atlanta Center
Sun 09:09:22 PM 34.4383 -83.5778 216° Southwest 329 379 10,400 -1,850 Descending Atlanta Center
Sun 09:10:22 PM 34.3717 -83.6386 217° Southwest 311 358 8,600 -1,700 Descending Atlanta Center
Sun 09:11:22 PM 34.3008 -83.6892 211° Southwest 303 349 7,000 -750 Descending Atlanta Center
Sun 09:12:22 PM 34.2383 -83.7322 210° Southwest 303 349 7,100 -100 Climbing Atlanta Center
Sun 09:13:22 PM 34.1697 -83.7853 213° Southwest 298 343 6,800 -300 Descending Atlanta Center
Sun 09:19:00 PM 34.0447 -83.8886 220° Southwest  Level FlightAware Approximate
Sun 09:26:00 PM 33.9667 -83.9500 248° West  Level FlightAware Approximate
Sun 09:27:00 PM 33.9781 -83.9624 248° West  Level Estimated
Sun 09:28:00 PM 33.9781 -83.9624 248° West  Level Estimated
Sun 09:29:00 PM 33.9781 -83.9624 248° West  Level Estimated
Sun 09:30:00 PM 33.9781 -83.9624 248° West  Level Estimated
Sun 09:31:00 PM 33.9781 -83.9624 248° West  Level Estimated
Sun 09:32:00 PM 33.9781 -83.9624 248° West  Level Estimated
Sun 09:33:00 PM 33.9781 -83.9624 248° West  Level Estimated

Login

Don't have an account? Register now (free) for customized features, flight alerts, and more!